createdAt,value
2023-04-28T03:41:36.486Z,101019.13
2023-04-28T03:44:45.583Z,101019.13
2023-04-28T03:47:48.343Z,101021.16
2023-04-28T03:50:51.259Z,101018.56
2023-04-28T03:53:53.906Z,101023.69
2023-04-28T03:56:57.791Z,101028.81
2023-04-28T04:00:00.355Z,101029.56
2023-04-28T04:03:07.083Z,101027.88
2023-04-28T04:06:09.934Z,101039.03
2023-04-28T04:09:12.644Z,101038.03
2023-04-28T04:12:16.394Z,101038.81
2023-04-28T04:15:19.094Z,101036.03
2023-04-28T04:18:22.839Z,101037.66
2023-04-28T04:21:27.891Z,101053.09
2023-04-28T04:24:31.254Z,101045.03
2023-04-28T04:27:33.951Z,101049.19
2023-04-28T04:30:37.315Z,101050.66
2023-04-28T04:33:40.771Z,101050.34
2023-04-28T04:36:44.209Z,101049.31
2023-04-28T04:39:47.720Z,101052.56
2023-04-28T04:42:50.994Z,101053.16
2023-04-28T04:45:54.169Z,101044.09
2023-04-28T04:48:57.119Z,101043.69
2023-04-28T04:51:59.861Z,101044.16
2023-04-28T04:55:02.954Z,101045.78
2023-04-28T04:58:05.836Z,101049.81
2023-04-28T05:01:11.410Z,101047.72
2023-04-28T05:04:14.628Z,101041.09
2023-04-28T05:07:17.905Z,101047.56
2023-04-28T05:10:20.886Z,101046.34
2023-04-28T05:13:23.837Z,101048.00
2023-04-28T05:16:28.653Z,101051.94
2023-04-28T05:19:32.171Z,101051.47
2023-04-28T05:22:35.818Z,101055.25
2023-04-28T05:25:38.850Z,101057.37
2023-04-28T05:28:41.654Z,101054.94
2023-04-28T05:31:44.608Z,101051.84
2023-04-28T05:34:47.415Z,101059.94
2023-04-28T05:37:50.546Z,101059.19
2023-04-28T05:40:53.393Z,101060.44
2023-04-28T05:43:56.325Z,101063.53
2023-04-28T05:46:59.216Z,101057.75
2023-04-28T05:50:03.336Z,101067.94
2023-04-28T05:53:07.570Z,101054.16
2023-04-28T05:56:10.522Z,101067.34
2023-04-28T05:59:13.546Z,101068.53
2023-04-28T06:02:17.398Z,101061.63
2023-04-28T06:05:20.837Z,101061.31
2023-04-28T06:08:25.656Z,101066.03
2023-04-28T06:11:28.913Z,101068.59
2023-04-28T06:14:31.733Z,101065.47
2023-04-28T06:17:34.851Z,101072.72
2023-04-28T06:20:37.494Z,101075.91
2023-04-28T06:23:42.244Z,101071.28
2023-04-28T06:26:45.050Z,101076.97
2023-04-28T06:29:48.456Z,101072.88
2023-04-28T06:32:51.685Z,101078.16
2023-04-28T06:35:57.457Z,101081.84
2023-04-28T06:39:00.811Z,101081.53
2023-04-28T06:42:04.523Z,101077.34
2023-04-28T06:45:09.079Z,101077.19
2023-04-28T06:48:13.254Z,101080.06
2023-04-28T06:51:15.896Z,101075.53
2023-04-28T06:54:19.522Z,101078.41
2023-04-28T06:57:22.594Z,101079.66
2023-04-28T07:00:25.643Z,101078.47
2023-04-28T07:03:28.649Z,101079.91
2023-04-28T07:06:32.513Z,101068.44
2023-04-28T07:09:35.996Z,101071.34
2023-04-28T07:12:38.923Z,101069.00
2023-04-28T07:15:41.694Z,101061.34
2023-04-28T07:18:44.579Z,101061.19
2023-04-28T07:21:47.121Z,101055.59
2023-04-28T07:24:50.537Z,101054.94
2023-04-28T07:27:54.247Z,101053.56
2023-04-28T07:30:57.580Z,101060.91
2023-04-28T07:34:00.034Z,101058.91
2023-04-28T07:37:04.651Z,101052.44
2023-04-28T07:40:08.352Z,101052.75
2023-04-28T07:43:11.453Z,101051.91
2023-04-28T07:46:14.412Z,101052.41
2023-04-28T07:49:17.732Z,101057.84
2023-04-28T07:52:20.442Z,101060.37
2023-04-28T07:55:23.301Z,101048.25
2023-04-28T07:58:26.237Z,101046.59
2023-04-28T08:01:29.182Z,101043.19
2023-04-28T08:04:34.000Z,101032.38
2023-04-28T08:07:37.858Z,101026.97
2023-04-28T08:10:42.237Z,101017.19
2023-04-28T08:13:44.958Z,101011.31
2023-04-28T08:16:48.511Z,101013.97
2023-04-28T08:19:51.325Z,101016.37
2023-04-28T08:22:54.273Z,101007.44
2023-04-28T08:25:56.857Z,101001.53
2023-04-28T08:28:59.844Z,101000.09
2023-04-28T08:32:03.097Z,101004.50
2023-04-28T08:35:06.075Z,100993.09
2023-04-28T08:38:13.921Z,100989.03
2023-04-28T08:41:17.143Z,100983.47
2023-04-28T08:44:20.308Z,100983.53
2023-04-28T08:47:23.920Z,100974.09
2023-04-28T08:50:31.649Z,100967.34
2023-04-28T08:53:59.376Z,100980.44
2023-04-28T08:57:01.237Z,100973.56
2023-04-28T09:00:04.787Z,100966.22
2023-04-28T09:03:09.164Z,100971.66
2023-04-28T09:06:12.739Z,100970.28
2023-04-28T09:09:26.206Z,100971.56
2023-04-28T09:12:38.596Z,100967.88
2023-04-28T09:15:41.556Z,100974.62
2023-04-28T09:18:59.107Z,100971.19
2023-04-28T09:22:13.722Z,100957.16
2023-04-28T09:25:22.902Z,100956.84
2023-04-28T09:28:25.851Z,100963.56
2023-04-28T09:31:29.123Z,100964.16
2023-04-28T09:34:42.840Z,100963.13
2023-04-28T09:37:45.700Z,100957.06
2023-04-28T09:40:56.131Z,100965.34
2023-04-28T09:44:21.500Z,100956.19
2023-04-28T09:47:25.481Z,100953.62
2023-04-28T09:50:40.724Z,100948.53
2023-04-28T09:53:44.214Z,100938.31
2023-04-28T09:56:48.984Z,100935.78
2023-04-28T09:59:53.618Z,100941.50
2023-04-28T10:02:57.245Z,100934.56
2023-04-28T10:06:00.306Z,100935.81
2023-04-28T10:09:03.190Z,100924.72
2023-04-28T10:12:07.280Z,100923.53
2023-04-28T10:15:10.800Z,100912.50
2023-04-28T10:18:15.623Z,100913.31
2023-04-28T10:21:22.508Z,100912.00
2023-04-28T10:24:33.051Z,100906.66
2023-04-28T10:27:36.908Z,100905.47
2023-04-28T10:30:40.177Z,100904.28
2023-04-28T10:33:43.410Z,100888.34
2023-04-28T10:36:55.137Z,100875.97
2023-04-28T10:40:35.904Z,100878.16
2023-04-28T10:43:40.216Z,100871.16
2023-04-28T10:47:07.598Z,100864.69
2023-04-28T10:50:11.470Z,100863.56
2023-04-28T10:53:14.252Z,100862.59
2023-04-28T10:56:18.704Z,100852.78
2023-04-28T10:59:28.532Z,100849.06
2023-04-28T11:02:42.617Z,100840.72
2023-04-28T11:06:32.373Z,100846.50
2023-04-28T11:09:35.239Z,100838.69
2023-04-28T11:13:16.703Z,100832.75
2023-04-28T11:16:22.780Z,100818.91
2023-04-28T11:19:28.660Z,100818.69
2023-04-28T11:22:32.406Z,100822.00
2023-04-28T11:25:54.401Z,100824.47
2023-04-28T11:28:58.592Z,100826.75
2023-04-28T11:32:01.630Z,100820.44
2023-04-28T11:35:09.402Z,100827.37
2023-04-28T11:38:12.081Z,100815.31
2023-04-28T11:41:15.037Z,100823.03
2023-04-28T11:44:22.231Z,100814.59
2023-04-28T11:47:33.518Z,100826.16
2023-04-28T11:50:37.830Z,100825.56
2023-04-28T11:53:42.368Z,100825.78
2023-04-28T11:56:45.313Z,100815.94
2023-04-28T11:59:49.933Z,100809.91
2023-04-28T12:02:53.288Z,100804.44
2023-04-28T12:05:56.343Z,100804.91
2023-04-28T12:09:04.314Z,100797.84
2023-04-28T12:12:10.163Z,100792.84
2023-04-28T12:15:12.876Z,100799.94
2023-04-28T12:18:19.462Z,100791.84
2023-04-28T12:21:22.305Z,100787.34
2023-04-28T12:24:26.884Z,100780.38
2023-04-28T12:27:29.583Z,100779.69
2023-04-28T12:30:43.855Z,100787.94
2023-04-28T12:33:46.546Z,100774.16
2023-04-28T12:36:49.321Z,100782.28
2023-04-28T12:39:51.755Z,100766.91
2023-04-28T12:42:54.842Z,100760.94
2023-04-28T12:45:57.569Z,100755.47
2023-04-28T12:49:01.202Z,100738.44
2023-04-28T12:52:05.787Z,100731.94
2023-04-28T12:55:09.430Z,100727.38
2023-04-28T12:58:12.140Z,100720.62
2023-04-28T13:01:16.158Z,100715.44
2023-04-28T13:04:19.560Z,100700.72
2023-04-28T13:07:22.913Z,100695.16
2023-04-28T13:10:26.658Z,100682.72
2023-04-28T13:13:29.542Z,100684.34
2023-04-28T13:16:32.094Z,100682.53
2023-04-28T13:19:35.101Z,100676.31
2023-04-28T13:22:37.621Z,100670.25
2023-04-28T13:25:40.906Z,100678.78
2023-04-28T13:28:43.643Z,100687.81
2023-04-28T13:31:46.710Z,100678.31
2023-04-28T13:34:49.435Z,100694.31
2023-04-28T13:37:56.179Z,100681.16
2023-04-28T13:40:58.757Z,100676.97
2023-04-28T13:44:01.844Z,100680.06
2023-04-28T13:47:05.451Z,100678.66
2023-04-28T13:50:08.812Z,100662.84
2023-04-28T13:53:11.715Z,100659.91
2023-04-28T13:56:14.623Z,100649.00
2023-04-28T13:59:17.673Z,100642.38
2023-04-28T14:02:21.256Z,100625.84
2023-04-28T14:05:24.878Z,100628.09
2023-04-28T14:08:28.909Z,100625.94
2023-04-28T14:11:32.049Z,100618.59
2023-04-28T14:14:35.126Z,100620.44
2023-04-28T14:17:38.141Z,100617.50
2023-04-28T14:20:40.794Z,100623.37
2023-04-28T14:23:43.713Z,100618.88
2023-04-28T14:26:46.440Z,100621.81
2023-04-28T14:29:49.910Z,100615.22
2023-04-28T14:32:52.409Z,100618.56
2023-04-28T14:35:58.368Z,100614.94
2023-04-28T14:39:00.763Z,100605.47
2023-04-28T14:42:03.964Z,100602.28
2023-04-28T14:45:09.169Z,100594.06
2023-04-28T14:48:14.331Z,100595.63
2023-04-28T14:51:17.004Z,100596.84
2023-04-28T14:54:22.932Z,100592.59
2023-04-28T14:57:26.575Z,100592.16
2023-04-28T15:00:30.843Z,100585.31
2023-04-28T15:03:33.950Z,100590.41
2023-04-28T15:06:37.336Z,100577.03
2023-04-28T15:09:40.684Z,100571.81
2023-04-28T15:12:43.904Z,100575.94
2023-04-28T15:15:46.392Z,100567.19
2023-04-28T15:18:49.191Z,100567.53
2023-04-28T15:21:51.984Z,100568.50
2023-04-28T15:24:56.033Z,100565.81
2023-04-28T15:27:59.076Z,100557.44
